Time;durP1;ratioP1;P1;durP2;ratioP2;P2;SDS_P1;SDS_P2;PMS_P1;PMS_P2;Temp;Humidity;BMP_temperature;BMP_pressure;BME280_temperature;BME280_humidity;BME280_pressure;Samples;Min_cycle;Max_cycle;Signal;HPM_P1;HPM_P2
2022/11/26 00:09:15;;;;;;;9.52;5.50;;;6.90;99.90;;;;;;5021163;28;20037;-77
2022/11/26 00:16:00;;;;;;;11.52;6.32;;;6.80;99.90;;;;;;5020302;28;20053;-77
2022/11/26 00:21:48;;;;;;;11.30;6.38;;;6.80;99.90;;;;;;5019878;28;20116;-77
2022/11/26 00:24:28;;;;;;;10.43;5.65;;;6.80;99.90;;;;;;5003997;28;20045;-77
2022/11/26 00:26:56;;;;;;;10.80;6.60;;;6.80;99.90;;;;;;5005352;28;20064;-77
2022/11/26 00:32:44;;;;;;;9.95;6.38;;;6.80;99.90;;;;;;5019167;28;20024;-77
2022/11/26 00:38:32;;;;;;;12.13;7.03;;;6.70;99.90;;;;;;5020845;28;20072;-77
2022/11/26 00:44:46;;;;;;;13.48;6.47;;;6.60;99.90;;;;;;5020849;28;20037;-78
2022/11/26 00:50:47;;;;;;;12.95;6.82;;;6.50;99.90;;;;;;5021221;28;20056;-80
2022/11/26 00:53:37;;;;;;;13.27;7.25;;;6.50;99.90;;;;;;5003658;28;20043;-79
2022/11/26 00:56:03;;;;;;;13.38;7.50;;;6.40;99.90;;;;;;5021684;28;20030;-79
2022/11/26 00:58:29;;;;;;;16.95;7.32;;;6.40;99.90;;;;;;5022106;28;20555;-80
2022/11/26 01:01:23;;;;;;;10.95;7.10;;;6.40;99.90;;;;;;5020503;28;20116;-80
2022/11/26 01:07:42;;;;;;;16.45;7.10;;;6.30;99.90;;;;;;5018335;28;20072;-80
2022/11/26 01:13:32;;;;;;;15.57;7.25;;;6.30;99.90;;;;;;5017738;28;20037;-79
2022/11/26 01:20:03;;;;;;;14.05;7.28;;;6.30;99.90;;;;;;5017124;28;20389;-78
2022/11/26 01:26:19;;;;;;;14.10;8.50;;;6.20;99.90;;;;;;4997705;28;19920;-78
2022/11/26 01:29:21;;;;;;;15.50;8.98;;;6.20;99.90;;;;;;5001513;28;20069;-78
2022/11/26 01:31:47;;;;;;;16.42;9.25;;;6.20;99.90;;;;;;4984127;28;20053;-78
2022/11/26 01:34:12;;;;;;;18.52;10.80;;;6.20;99.90;;;;;;5001078;28;20081;-78
2022/11/26 01:37:17;;;;;;;19.80;11.05;;;6.20;99.90;;;;;;4983070;28;20459;-77
2022/11/26 01:43:32;;;;;;;22.38;12.27;;;6.20;99.90;;;;;;5002252;28;20057;-77
2022/11/26 01:49:33;;;;;;;20.25;13.50;;;6.20;99.90;;;;;;5002351;28;20026;-77
2022/11/26 01:52:05;;;;;;;21.23;12.85;;;6.20;99.90;;;;;;5001850;28;20026;-77
2022/11/26 01:54:33;;;;;;;19.83;11.90;;;6.30;99.90;;;;;;4985643;28;20033;-76
2022/11/26 01:57:31;;;;;;;21.17;12.05;;;6.30;99.90;;;;;;5002136;28;20034;-77
2022/11/26 02:07:07;;;;;;;18.08;11.93;;;6.30;99.90;;;;;;5000250;28;20390;-77
2022/11/26 02:16:38;;;;;;;23.33;13.73;;;6.40;99.90;;;;;;4998929;28;20034;-76
2022/11/26 02:23:32;;;;;;;20.10;12.18;;;6.50;99.90;;;;;;5015873;28;20057;-76
2022/11/26 02:40:25;;;;;;;17.13;11.93;;;6.60;99.90;;;;;;5016585;28;20124;-76
2022/11/26 02:46:20;;;;;;;19.45;11.90;;;6.60;99.90;;;;;;5016915;28;20020;-76
2022/11/26 02:48:49;;;;;;;20.15;11.27;;;6.60;99.90;;;;;;4999035;28;20110;-76
2022/11/26 02:51:21;;;;;;;25.10;11.70;;;6.70;99.90;;;;;;5015719;28;20025;-76
2022/11/26 02:54:07;;;;;;;17.38;10.40;;;6.70;99.90;;;;;;5015681;28;20038;-76
2022/11/26 02:56:33;;;;;;;17.13;10.75;;;6.80;99.90;;;;;;5002074;28;20489;-77
2022/11/26 02:58:59;;;;;;;17.55;10.68;;;6.80;99.90;;;;;;5001685;28;20030;-76
2022/11/26 03:01:57;;;;;;;17.85;10.95;;;6.90;99.90;;;;;;5001733;28;20125;-76
2022/11/26 03:08:04;;;;;;;17.02;10.90;;;6.90;99.90;;;;;;5023863;28;20025;-77
2022/11/26 03:17:33;;;;;;;15.85;10.07;;;7.00;99.90;;;;;;5021175;28;20112;-76
2022/11/26 03:23:21;;;;;;;19.45;10.70;;;7.00;99.90;;;;;;5018311;28;20056;-76
2022/11/26 03:26:14;;;;;;;17.15;11.85;;;7.00;99.90;;;;;;5002392;28;20034;-76
2022/11/26 03:28:40;;;;;;;16.85;10.57;;;7.00;99.90;;;;;;5001433;28;20029;-76
2022/11/26 03:34:58;;;;;;;18.73;11.18;;;7.00;99.90;;;;;;5023007;28;20468;-76
2022/11/26 03:41:13;;;;;;;16.40;11.07;;;7.00;99.90;;;;;;5020668;28;20397;-76
2022/11/26 03:47:26;;;;;;;19.08;11.50;;;6.90;99.90;;;;;;5017098;28;20029;-76
2022/11/26 03:53:31;;;;;;;18.08;10.38;;;6.90;99.90;;;;;;5018097;28;20133;-76
2022/11/26 03:59:48;;;;;;;17.55;10.60;;;6.90;99.90;;;;;;5018031;28;20032;-76
2022/11/26 04:02:14;;;;;;;17.02;11.25;;;6.90;99.90;;;;;;5000234;28;20034;-76
2022/11/26 04:04:40;;;;;;;15.73;10.32;;;7.00;99.90;;;;;;5001565;28;20038;-76
2022/11/26 04:07:11;;;;;;;16.90;10.50;;;7.00;99.90;;;;;;5019461;28;20026;-77
2022/11/26 04:13:02;;;;;;;18.77;10.98;;;7.00;99.90;;;;;;5016719;28;20021;-76
2022/11/26 04:33:21;;;;;;;23.08;11.85;;;7.00;99.90;;;;;;5016737;28;20132;-76
2022/11/26 04:39:48;;;;;;;19.45;11.65;;;7.10;99.90;;;;;;5015918;28;20377;-76
2022/11/26 04:42:52;;;;;;;18.38;11.55;;;7.10;99.90;;;;;;4999066;28;20044;-76
2022/11/26 04:45:17;;;;;;;16.88;11.02;;;7.10;99.90;;;;;;4999497;28;20049;-76
2022/11/26 04:47:43;;;;;;;18.65;11.98;;;7.20;99.90;;;;;;5014974;28;20022;-76
2022/11/26 04:50:10;;;;;;;18.38;11.65;;;7.20;99.90;;;;;;5014592;28;20080;-76
2022/11/26 04:52:35;;;;;;;18.95;11.77;;;7.20;99.90;;;;;;4999781;28;20363;-76
2022/11/26 04:59:00;;;;;;;19.85;11.23;;;7.10;99.90;;;;;;5014746;28;20037;-76
2022/11/26 05:05:11;;;;;;;21.92;11.98;;;7.10;99.90;;;;;;5017313;28;20405;-76
2022/11/26 05:11:31;;;;;;;19.13;12.65;;;7.10;99.90;;;;;;5018598;28;19929;-78
2022/11/26 05:17:33;;;;;;;20.17;12.75;;;7.00;99.90;;;;;;5019769;28;20029;-79
2022/11/26 06:07:34;;;;;;;21.95;13.13;;;7.00;99.90;;;;;;5019744;28;20092;-77
2022/11/26 06:13:26;;;;;;;24.70;15.20;;;7.10;99.90;;;;;;5019186;28;20079;-77
2022/11/26 06:19:18;;;;;;;23.75;13.57;;;7.20;99.90;;;;;;5020099;28;20042;-77
2022/11/26 06:32:31;;;;;;;24.55;14.20;;;7.20;99.90;;;;;;5010474;28;20498;-78
2022/11/26 06:38:28;;;;;;;24.23;14.27;;;7.30;99.90;;;;;;4998283;28;20418;-77
2022/11/26 06:41:03;;;;;;;22.92;14.45;;;7.30;99.90;;;;;;4996531;28;20035;-76
2022/11/26 06:43:29;;;;;;;23.83;13.93;;;7.30;99.90;;;;;;4996680;28;20027;-75
2022/11/26 06:46:00;;;;;;;23.92;15.90;;;7.30;99.90;;;;;;4997256;28;20034;-75
2022/11/26 06:48:31;;;;;;;23.38;15.20;;;7.40;99.90;;;;;;5003407;28;20120;-80
2022/11/26 06:54:42;;;;;;;23.35;13.57;;;7.40;99.90;;;;;;5003754;28;20033;-81
2022/11/26 07:00:42;;;;;;;22.55;13.38;;;7.40;99.90;;;;;;4998565;28;20077;-77
2022/11/26 07:03:25;;;;;;;25.33;14.98;;;7.40;99.90;;;;;;4996298;28;20382;-78
2022/11/26 07:05:51;;;;;;;25.02;15.20;;;7.40;99.90;;;;;;4997303;28;20034;-77
2022/11/26 07:08:17;;;;;;;24.17;14.27;;;7.40;99.90;;;;;;4996216;28;20041;-78
2022/11/26 07:10:43;;;;;;;24.10;14.18;;;7.50;99.90;;;;;;4995008;28;20061;-77
2022/11/26 07:13:08;;;;;;;21.10;12.65;;;7.40;99.90;;;;;;4995187;28;20526;-79
2022/11/26 07:15:34;;;;;;;24.67;14.35;;;7.50;99.90;;;;;;5014617;28;20084;-78
2022/11/26 07:18:00;;;;;;;20.85;13.95;;;7.50;99.90;;;;;;5017939;28;20444;-76
2022/11/26 07:20:26;;;;;;;21.52;13.65;;;7.50;99.90;;;;;;5020606;28;20054;-74
2022/11/26 07:22:54;;;;;;;22.77;14.18;;;7.50;99.90;;;;;;5017157;28;20026;-74
2022/11/26 07:25:20;;;;;;;23.23;14.05;;;7.50;99.90;;;;;;5014993;28;20167;-67
2022/11/26 07:27:46;;;;;;;19.85;14.32;;;7.50;99.90;;;;;;5014847;28;20057;-73
2022/11/26 07:30:12;;;;;;;25.67;14.82;;;7.50;99.90;;;;;;5013627;28;20037;-69
2022/11/26 07:32:38;;;;;;;25.45;14.13;;;7.50;99.90;;;;;;5007052;28;20026;-68
2022/11/26 07:35:05;;;;;;;22.13;14.18;;;7.60;99.90;;;;;;4995375;28;20478;-66
2022/11/26 07:37:32;;;;;;;24.45;14.75;;;7.50;99.90;;;;;;4995187;28;20030;-67
2022/11/26 07:39:57;;;;;;;22.52;14.57;;;7.50;99.90;;;;;;4995309;28;20083;-68
2022/11/26 07:42:23;;;;;;;24.85;15.85;;;7.50;99.90;;;;;;4995200;28;20034;-67
2022/11/26 07:44:49;;;;;;;24.15;14.98;;;7.50;99.90;;;;;;4994882;28;20478;-66
2022/11/26 07:47:15;;;;;;;26.35;15.98;;;7.40;99.90;;;;;;4996962;28;20037;-61
2022/11/26 07:49:40;;;;;;;24.33;14.55;;;7.50;99.90;;;;;;4995665;28;20026;-69
2022/11/26 07:52:06;;;;;;;24.52;13.82;;;7.60;99.90;;;;;;4996534;28;20471;-71
2022/11/26 07:54:32;;;;;;;23.73;13.50;;;7.60;99.90;;;;;;4997297;28;20057;-69
2022/11/26 07:56:58;;;;;;;21.75;14.20;;;7.60;99.90;;;;;;4997489;28;20502;-67
2022/11/26 07:59:23;;;;;;;19.45;12.98;;;7.70;99.90;;;;;;4996194;28;20033;-64
2022/11/26 08:01:49;;;;;;;19.30;11.43;;;7.80;99.90;;;;;;4993840;28;20058;-70
2022/11/26 08:04:15;;;;;;;15.70;11.60;;;7.90;99.90;;;;;;4995653;28;20038;-69
2022/11/26 08:06:40;;;;;;;17.83;9.95;;;8.00;99.90;;;;;;4997790;28;20032;-73
2022/11/26 08:09:06;;;;;;;15.00;8.90;;;8.10;99.90;;;;;;4983572;28;20117;-75
2022/11/26 08:11:33;;;;;;;14.68;8.55;;;8.20;99.90;;;;;;5000776;28;20459;-72
2022/11/26 08:14:01;;;;;;;12.05;8.07;;;8.20;99.90;;;;;;4983169;28;20034;-73
2022/11/26 08:16:27;;;;;;;8.88;5.45;;;8.30;99.90;;;;;;4999781;28;20190;-73
2022/11/26 08:18:54;;;;;;;12.43;7.05;;;8.50;99.90;;;;;;5000088;28;20085;-73
2022/11/26 08:21:21;;;;;;;10.40;6.90;;;8.70;99.90;;;;;;4997926;28;20360;-72
2022/11/26 08:23:47;;;;;;;14.68;6.07;;;8.90;99.90;;;;;;4978552;28;20053;-60
2022/11/26 08:26:14;;;;;;;10.15;5.80;;;9.40;99.90;;;;;;4998466;28;20031;-73
2022/11/26 08:28:41;;;;;;;10.95;5.72;;;9.90;99.90;;;;;;5011241;28;20031;-69
2022/11/26 08:31:09;;;;;;;10.00;5.18;;;10.20;99.90;;;;;;4995063;28;20493;-70
2022/11/26 08:33:35;;;;;;;10.48;5.47;;;10.60;99.90;;;;;;4993236;28;20085;-70
2022/11/26 08:36:01;;;;;;;9.55;4.90;;;10.50;99.90;;;;;;4995072;28;20046;-70
2022/11/26 08:38:29;;;;;;;4.72;3.83;;;10.40;99.90;;;;;;4995470;28;20114;-71
2022/11/26 08:40:58;;;;;;;7.80;5.00;;;10.80;99.90;;;;;;4997837;28;20026;-72
2022/11/26 08:43:24;;;;;;;10.73;4.75;;;11.20;99.90;;;;;;5000620;28;20026;-73
2022/11/26 08:45:58;;;;;;;7.97;4.63;;;11.40;99.90;;;;;;5002667;28;20034;-73
2022/11/26 08:48:26;;;;;;;7.13;4.35;;;11.40;99.90;;;;;;5002310;28;20026;-71
2022/11/26 08:50:56;;;;;;;5.80;4.47;;;10.80;99.90;;;;;;5000003;28;20026;-71
2022/11/26 08:53:22;;;;;;;7.47;4.15;;;10.70;99.90;;;;;;5014345;28;20033;-71
2022/11/26 08:55:48;;;;;;;8.82;4.15;;;10.60;99.90;;;;;;4998802;28;20466;-73
2022/11/26 08:58:13;;;;;;;7.28;4.00;;;10.50;99.90;;;;;;4998487;28;20176;-71
2022/11/26 09:00:40;;;;;;;7.63;4.15;;;10.40;99.90;;;;;;4997386;28;20026;-72
2022/11/26 09:03:06;;;;;;;9.48;4.30;;;10.20;99.90;;;;;;4998670;28;20355;-71
2022/11/26 09:05:32;;;;;;;7.10;4.47;;;10.30;99.90;;;;;;4998466;28;20390;-71
2022/11/26 09:07:57;;;;;;;6.95;4.30;;;10.30;99.90;;;;;;5001769;28;20030;-71
2022/11/26 09:10:23;;;;;;;7.30;4.57;;;10.00;99.90;;;;;;5002076;28;20402;-71
2022/11/26 09:12:49;;;;;;;7.03;4.30;;;9.90;99.90;;;;;;4983747;28;20057;-71
2022/11/26 09:15:14;;;;;;;7.38;4.43;;;9.90;99.90;;;;;;4999043;28;20038;-70
2022/11/26 09:17:40;;;;;;;8.02;4.90;;;9.80;99.90;;;;;;4999529;28;20535;-71
2022/11/26 09:20:06;;;;;;;9.25;4.78;;;9.60;99.90;;;;;;4999293;28;20382;-58
2022/11/26 09:22:34;;;;;;;8.05;4.38;;;9.70;99.90;;;;;;4997045;28;20023;-59
2022/11/26 09:24:59;;;;;;;9.23;4.45;;;10.00;99.90;;;;;;4996826;28;20038;-58
2022/11/26 09:27:25;;;;;;;9.27;4.80;;;10.00;99.90;;;;;;4997144;28;20386;-58
2022/11/26 09:29:51;;;;;;;8.27;4.60;;;10.00;99.90;;;;;;4996997;28;20045;-58
2022/11/26 09:32:16;;;;;;;6.97;4.57;;;9.80;99.90;;;;;;4997015;28;20156;-58
2022/11/26 09:34:42;;;;;;;8.10;4.30;;;9.70;99.90;;;;;;4996504;28;20050;-58
2022/11/26 09:37:08;;;;;;;5.88;4.30;;;9.60;99.90;;;;;;4996647;28;20039;-58
2022/11/26 09:39:33;;;;;;;5.03;4.30;;;9.60;99.90;;;;;;4996928;28;20022;-72
2022/11/26 09:42:03;;;;;;;7.18;4.35;;;9.60;99.90;;;;;;4996583;28;20023;-69
2022/11/26 09:44:40;;;;;;;7.30;4.50;;;9.50;99.90;;;;;;4998476;28;20065;-71
2022/11/26 09:47:22;;;;;;;10.32;4.68;;;9.30;99.90;;;;;;5000322;28;20030;-71
2022/11/26 09:49:55;;;;;;;8.43;5.00;;;9.30;99.90;;;;;;4981500;28;20030;-70
2022/11/26 09:52:25;;;;;;;10.23;5.05;;;9.30;99.90;;;;;;4999100;28;20026;-71
2022/11/26 09:54:56;;;;;;;6.00;4.93;;;9.10;99.90;;;;;;4999600;28;20421;-71
2022/11/26 09:57:37;;;;;;;9.27;4.80;;;9.10;99.90;;;;;;4997396;28;20042;-71
2022/11/26 10:00:05;;;;;;;9.82;4.78;;;9.20;99.90;;;;;;4998241;28;20037;-70
2022/11/26 10:02:32;;;;;;;8.02;5.00;;;9.30;99.90;;;;;;4997736;28;20534;-70
2022/11/26 10:04:57;;;;;;;9.40;4.82;;;9.40;99.90;;;;;;4997897;28;20030;-70
2022/11/26 10:07:23;;;;;;;8.48;4.78;;;9.40;99.90;;;;;;4996056;28;20081;-69
2022/11/26 10:10:15;;;;;;;7.30;4.65;;;9.40;99.90;;;;;;4996943;28;20026;-70
2022/11/26 10:12:56;;;;;;;7.20;4.72;;;9.60;99.90;;;;;;4996857;28;20026;-70
2022/11/26 10:15:37;;;;;;;8.07;5.50;;;9.80;99.90;;;;;;4995004;28;20034;-70
2022/11/26 10:18:21;;;;;;;7.03;4.70;;;9.90;99.90;;;;;;4995337;28;20136;-70
2022/11/26 10:20:58;;;;;;;7.18;4.40;;;9.90;99.90;;;;;;4996818;28;20073;-70
2022/11/26 10:23:49;;;;;;;10.00;5.13;;;9.80;99.90;;;;;;4996856;28;20022;-70
2022/11/26 10:26:34;;;;;;;7.05;4.57;;;9.70;99.90;;;;;;4998024;28;20041;-72
2022/11/26 10:29:21;;;;;;;9.80;4.80;;;9.70;99.90;;;;;;4998185;28;20034;-70
2022/11/26 10:31:49;;;;;;;7.22;4.68;;;9.60;99.90;;;;;;4998299;28;20045;-70
2022/11/26 10:34:44;;;;;;;12.38;5.25;;;9.60;99.90;;;;;;4980248;28;20049;-70
2022/11/26 10:37:10;;;;;;;12.25;5.28;;;9.50;99.90;;;;;;4986565;28;20042;-70
2022/11/26 10:39:35;;;;;;;7.70;5.68;;;9.60;99.90;;;;;;4996869;28;20489;-70
2022/11/26 10:42:19;;;;;;;9.15;4.63;;;9.70;99.90;;;;;;4978886;28;20026;-70
2022/11/26 10:44:47;;;;;;;8.15;4.82;;;9.90;99.90;;;;;;4995901;28;20030;-70
2022/11/26 10:47:27;;;;;;;6.40;4.32;;;10.00;99.90;;;;;;4995325;28;20034;-70
2022/11/26 10:50:18;;;;;;;7.25;4.43;;;10.00;99.90;;;;;;4996588;28;20106;-71
2022/11/26 10:52:45;;;;;;;8.55;4.95;;;10.10;99.90;;;;;;4997110;28;20032;-70
2022/11/26 10:55:31;;;;;;;7.68;4.53;;;10.10;99.90;;;;;;4997101;28;20035;-70
2022/11/26 10:58:04;;;;;;;5.57;4.28;;;10.10;99.90;;;;;;4995693;28;20112;-70
2022/11/26 11:00:37;;;;;;;8.88;4.38;;;10.10;99.90;;;;;;4994887;28;20482;-70
2022/11/26 11:03:13;;;;;;;7.03;4.40;;;10.00;99.90;;;;;;4995306;28;20044;-70
2022/11/26 11:05:41;;;;;;;7.97;4.95;;;9.80;99.90;;;;;;4996069;28;20042;-69
2022/11/26 11:08:27;;;;;;;6.70;4.38;;;9.80;99.90;;;;;;4996413;28;20026;-70
2022/11/26 11:10:59;;;;;;;11.57;5.53;;;9.70;99.90;;;;;;4995204;28;20034;-70
2022/11/26 11:13:42;;;;;;;8.23;4.75;;;9.60;99.90;;;;;;5012234;28;20057;-70
2022/11/26 11:16:10;;;;;;;9.77;4.40;;;9.50;99.90;;;;;;4996463;28;20418;-69
2022/11/26 11:18:37;;;;;;;10.20;5.32;;;9.40;99.90;;;;;;4994933;28;20410;-70
2022/11/26 11:21:03;;;;;;;9.60;5.10;;;9.30;99.90;;;;;;4994684;28;20022;-70
2022/11/26 11:23:35;;;;;;;7.15;4.53;;;9.30;99.90;;;;;;4996056;28;20030;-70
2022/11/26 11:26:08;;;;;;;6.80;4.30;;;9.30;99.90;;;;;;4994673;28;20053;-70
2022/11/26 11:28:41;;;;;;;6.78;4.63;;;9.20;99.90;;;;;;4995309;28;20022;-70
2022/11/26 11:31:26;;;;;;;8.15;5.07;;;9.20;99.90;;;;;;4994260;28;20033;-70
2022/11/26 11:34:11;;;;;;;11.18;5.13;;;9.10;99.90;;;;;;4995136;28;20081;-69
2022/11/26 11:36:37;;;;;;;9.13;5.43;;;9.10;99.90;;;;;;4996167;28;20121;-70
2022/11/26 11:39:04;;;;;;;8.05;4.80;;;9.10;99.90;;;;;;4996074;28;20064;-70
2022/11/26 11:41:32;;;;;;;8.65;4.40;;;9.00;99.90;;;;;;4993872;28;20080;-70
2022/11/26 11:44:04;;;;;;;5.18;3.38;;;9.00;99.90;;;;;;4995564;28;20038;-70
2022/11/26 11:46:58;;;;;;;8.48;4.45;;;9.00;99.90;;;;;;4995460;28;20034;-70
2022/11/26 11:49:37;;;;;;;7.47;4.63;;;9.00;99.90;;;;;;4977754;28;20072;-70
2022/11/26 11:52:15;;;;;;;12.10;4.53;;;9.00;99.90;;;;;;4994944;28;20026;-70
2022/11/26 11:55:19;;;;;;;7.60;4.43;;;9.00;99.90;;;;;;4994958;28;20066;-70
2022/11/26 11:57:48;;;;;;;7.10;4.60;;;9.00;99.90;;;;;;4961188;28;20430;-70
2022/11/26 12:00:17;;;;;;;6.40;4.22;;;9.00;99.90;;;;;;4993709;28;20470;-70
2022/11/26 12:02:46;;;;;;;6.20;4.28;;;9.00;99.90;;;;;;4977406;28;20427;-70
2022/11/26 12:05:30;;;;;;;7.75;4.38;;;9.00;99.90;;;;;;4993734;28;20034;-70
2022/11/26 12:08:43;;;;;;;12.57;4.85;;;9.10;99.90;;;;;;4995438;28;20051;-70
2022/11/26 12:11:45;;;;;;;9.43;5.28;;;9.00;99.90;;;;;;4994627;28;20042;-70
2022/11/26 12:14:15;;;;;;;8.18;4.78;;;9.00;99.90;;;;;;5000837;28;20447;-70
2022/11/26 12:16:46;;;;;;;6.93;4.85;;;9.00;99.90;;;;;;4983636;28;20033;-70
2022/11/26 12:19:38;;;;;;;10.10;4.78;;;9.00;99.90;;;;;;5000147;28;20029;-70
2022/11/26 12:22:14;;;;;;;7.97;5.07;;;9.00;99.90;;;;;;4987109;28;20089;-70
2022/11/26 12:24:56;;;;;;;11.57;4.80;;;9.00;99.90;;;;;;4999775;28;20056;-70
2022/11/26 12:27:42;;;;;;;8.43;4.75;;;9.00;99.90;;;;;;4997610;28;20374;-70
2022/11/26 12:30:36;;;;;;;9.90;4.80;;;8.90;99.90;;;;;;4997586;28;20026;-69
2022/11/26 12:33:20;;;;;;;8.38;4.97;;;8.90;99.90;;;;;;4998644;28;20113;-70
2022/11/26 12:35:52;;;;;;;9.30;5.20;;;8.90;99.90;;;;;;4997548;28;20062;-70
2022/11/26 12:38:33;;;;;;;9.73;4.70;;;8.90;99.90;;;;;;4998866;28;20033;-70
2022/11/26 12:41:15;;;;;;;7.70;4.85;;;9.00;99.90;;;;;;4997611;28;20429;-70
2022/11/26 12:43:48;;;;;;;10.55;5.30;;;9.00;99.90;;;;;;4981281;28;20030;-70
2022/11/26 12:46:17;;;;;;;8.55;4.80;;;9.10;99.90;;;;;;4998466;28;20027;-71
2022/11/26 12:49:17;;;;;;;10.95;4.55;;;9.10;99.90;;;;;;4997033;28;20581;-70
2022/11/26 12:52:08;;;;;;;9.73;5.95;;;9.10;99.90;;;;;;4982224;28;20046;-70
2022/11/26 12:54:55;;;;;;;14.63;5.20;;;9.10;99.90;;;;;;4977519;28;20046;-70
2022/11/26 12:57:40;;;;;;;7.03;4.75;;;9.20;99.90;;;;;;4998034;28;20022;-70
2022/11/26 13:00:35;;;;;;;6.85;5.30;;;9.20;99.90;;;;;;4997700;28;20069;-70
2022/11/26 13:03:01;;;;;;;7.15;4.32;;;9.20;99.90;;;;;;4996954;28;20340;-70
2022/11/26 13:05:54;;;;;;;7.35;4.38;;;9.20;99.90;;;;;;4997897;28;20019;-70
2022/11/26 13:08:32;;;;;;;11.80;4.82;;;9.20;99.90;;;;;;4996467;28;20066;-72
2022/11/26 13:11:19;;;;;;;9.73;5.10;;;9.30;99.90;;;;;;4996610;28;20027;-70
2022/11/26 13:14:12;;;;;;;6.60;4.47;;;9.30;99.90;;;;;;4997775;28;20034;-71
2022/11/26 13:16:38;;;;;;;8.90;5.25;;;9.20;99.90;;;;;;4996180;28;20027;-70
2022/11/26 13:19:17;;;;;;;7.75;4.80;;;9.20;99.90;;;;;;4998121;28;20352;-71
2022/11/26 13:22:07;;;;;;;9.55;5.30;;;9.20;99.90;;;;;;4996550;28;20027;-71
2022/11/26 13:24:49;;;;;;;9.32;5.60;;;9.20;99.90;;;;;;4996564;28;20490;-71
2022/11/26 13:27:32;;;;;;;11.43;5.22;;;9.20;99.90;;;;;;5000598;28;20475;-71
2022/11/26 13:30:16;;;;;;;9.30;5.10;;;9.20;99.90;;;;;;5000137;28;20030;-71
2022/11/26 13:33:10;;;;;;;12.85;5.38;;;9.30;99.90;;;;;;4999074;28;20048;-70
2022/11/26 13:36:04;;;;;;;8.65;5.43;;;9.50;99.90;;;;;;4998423;28;20085;-70
2022/11/26 13:38:53;;;;;;;10.52;5.40;;;9.60;99.90;;;;;;4997646;28;20065;-70
2022/11/26 13:41:43;;;;;;;10.23;5.18;;;9.60;99.90;;;;;;4997087;28;20029;-70
2022/11/26 13:44:09;;;;;;;10.13;4.65;;;9.50;99.90;;;;;;4997380;28;20128;-69
2022/11/26 13:46:55;;;;;;;11.40;5.95;;;9.50;99.90;;;;;;4995789;28;20034;-69
2022/11/26 13:49:51;;;;;;;11.45;5.85;;;9.40;99.90;;;;;;4995130;28;20493;-72
2022/11/26 13:52:29;;;;;;;9.55;5.63;;;9.30;99.90;;;;;;4980678;28;20026;-72
2022/11/26 13:55:00;;;;;;;11.77;5.78;;;9.30;99.90;;;;;;4999682;28;20030;-73
2022/11/26 13:57:34;;;;;;;9.45;5.00;;;9.20;99.90;;;;;;4998604;28;20026;-71
2022/11/26 14:00:00;;;;;;;7.68;4.72;;;9.20;99.90;;;;;;4998743;28;20022;-73
2022/11/26 14:02:32;;;;;;;10.02;4.55;;;9.20;99.90;;;;;;4999181;28;20042;-72
2022/11/26 14:05:00;;;;;;;11.98;5.85;;;9.20;99.90;;;;;;4998830;28;20034;-72
2022/11/26 14:07:25;;;;;;;10.27;4.50;;;9.20;99.90;;;;;;4999505;28;20062;-73
2022/11/26 14:09:54;;;;;;;11.38;5.78;;;9.20;99.90;;;;;;4998711;28;20053;-74
2022/11/26 14:12:22;;;;;;;9.60;5.20;;;9.20;99.90;;;;;;4998830;28;20565;-73
2022/11/26 14:14:49;;;;;;;8.02;5.68;;;9.20;99.90;;;;;;4999751;28;20616;-73
2022/11/26 14:17:23;;;;;;;9.52;5.15;;;9.20;99.90;;;;;;4997702;28;20422;-72
2022/11/26 14:19:50;;;;;;;26.80;5.43;;;9.10;99.90;;;;;;4999301;28;20104;-72
2022/11/26 14:22:28;;;;;;;6.60;5.47;;;9.10;99.90;;;;;;4997485;28;20026;-72
2022/11/26 14:24:57;;;;;;;13.90;6.55;;;9.00;99.90;;;;;;4981102;28;20525;-71
2022/11/26 14:27:29;;;;;;;8.35;5.22;;;8.90;99.90;;;;;;4998467;28;20038;-72
2022/11/26 14:30:00;;;;;;;8.85;5.30;;;8.90;99.90;;;;;;4998493;28;20061;-72
2022/11/26 14:32:31;;;;;;;8.82;5.97;;;8.80;99.90;;;;;;4997548;28;20053;-71
2022/11/26 14:34:57;;;;;;;9.73;5.57;;;8.80;99.90;;;;;;4977109;28;20050;-72
2022/11/26 14:37:28;;;;;;;9.63;5.78;;;8.80;99.90;;;;;;4975826;28;20463;-71
2022/11/26 14:40:01;;;;;;;7.10;5.68;;;8.80;99.90;;;;;;4975796;28;20161;-72
2022/11/26 14:42:28;;;;;;;10.13;5.22;;;8.70;99.90;;;;;;4976722;28;20023;-72
2022/11/26 14:45:05;;;;;;;9.68;5.63;;;8.60;99.90;;;;;;4979051;28;20026;-72
2022/11/26 14:47:32;;;;;;;9.30;5.25;;;8.50;99.90;;;;;;4996972;28;20058;-71
2022/11/26 14:50:01;;;;;;;8.45;5.57;;;8.40;99.90;;;;;;4997387;28;20129;-72
2022/11/26 14:52:32;;;;;;;11.18;6.15;;;8.30;99.90;;;;;;4997165;28;20552;-80
2022/11/26 14:55:05;;;;;;;13.88;5.43;;;8.20;99.90;;;;;;4979266;28;20038;-72
2022/11/26 14:57:41;;;;;;;10.90;5.32;;;8.10;99.90;;;;;;4997169;28;20030;-73
2022/11/26 15:00:12;;;;;;;8.13;5.15;;;8.00;99.90;;;;;;4979179;28;20023;-73
2022/11/26 15:02:41;;;;;;;8.48;5.25;;;8.00;99.90;;;;;;4996654;28;20034;-73
2022/11/26 15:05:13;;;;;;;8.02;5.05;;;7.90;99.90;;;;;;4979171;28;20070;-72
2022/11/26 15:07:39;;;;;;;8.10;4.28;;;7.80;99.90;;;;;;4997202;28;20030;-73
2022/11/26 15:10:25;;;;;;;7.47;4.80;;;7.70;99.90;;;;;;4979272;28;20378;-72
2022/11/26 15:12:52;;;;;;;8.50;3.72;;;7.70;99.90;;;;;;4979958;28;20054;-73
2022/11/26 15:15:23;;;;;;;7.40;4.13;;;7.70;99.90;;;;;;4996767;28;20533;-73
2022/11/26 15:18:11;;;;;;;5.22;3.58;;;7.70;99.90;;;;;;4979392;28;20030;-72
2022/11/26 15:20:38;;;;;;;6.32;3.60;;;7.60;99.90;;;;;;4996652;28;20082;-72
2022/11/26 15:23:05;;;;;;;7.43;4.43;;;7.60;99.90;;;;;;4978987;28;20493;-72
2022/11/26 15:25:34;;;;;;;6.40;3.78;;;7.60;99.90;;;;;;4979345;28;20396;-72
2022/11/26 15:28:02;;;;;;;6.15;3.92;;;7.60;99.90;;;;;;4978944;28;20053;-73
2022/11/26 15:30:37;;;;;;;7.95;3.80;;;7.60;99.90;;;;;;4996692;28;20034;-73
2022/11/26 15:33:12;;;;;;;5.95;4.30;;;7.60;99.90;;;;;;4995705;28;20120;-73
2022/11/26 15:35:42;;;;;;;7.72;4.28;;;7.60;99.90;;;;;;4992614;28;20056;-72
2022/11/26 15:38:21;;;;;;;9.77;4.85;;;7.60;99.90;;;;;;5015966;28;20056;-73
2022/11/26 15:40:56;;;;;;;7.05;4.75;;;7.60;99.90;;;;;;5016780;28;20477;-73
2022/11/26 15:43:29;;;;;;;7.13;4.60;;;7.60;99.90;;;;;;4999072;28;20021;-73
2022/11/26 15:46:14;;;;;;;11.45;4.53;;;7.70;99.90;;;;;;5000257;28;20458;-73
2022/11/26 15:48:46;;;;;;;8.95;4.32;;;7.70;99.90;;;;;;5017326;28;20032;-73
2022/11/26 15:51:20;;;;;;;7.93;4.90;;;7.70;99.90;;;;;;5018267;28;20048;-73
2022/11/26 15:53:48;;;;;;;9.95;4.97;;;7.60;99.90;;;;;;5000838;28;20049;-72
2022/11/26 15:56:25;;;;;;;7.23;4.40;;;7.50;99.90;;;;;;5018129;28;20036;-73
2022/11/26 15:58:58;;;;;;;8.43;4.47;;;7.50;99.90;;;;;;5017172;28;20378;-72
2022/11/26 16:01:27;;;;;;;5.65;4.15;;;7.40;99.90;;;;;;5017987;28;20088;-72
2022/11/26 16:03:54;;;;;;;8.73;5.63;;;7.40;99.90;;;;;;5000173;28;20044;-71
2022/11/26 16:06:32;;;;;;;10.25;4.45;;;7.30;99.90;;;;;;5018654;28;20083;-74
2022/11/26 16:09:10;;;;;;;10.63;5.18;;;7.30;99.90;;;;;;5019824;28;20030;-73
2022/11/26 16:11:43;;;;;;;7.03;4.85;;;7.30;99.90;;;;;;5002514;28;20033;-74
2022/11/26 16:14:29;;;;;;;10.00;4.68;;;7.30;99.90;;;;;;5000773;28;20034;-73
2022/11/26 16:17:04;;;;;;;6.20;3.70;;;7.40;99.90;;;;;;4998348;28;20378;-74
2022/11/26 16:19:31;;;;;;;5.50;2.90;;;7.40;99.90;;;;;;4998775;28;20033;-73
2022/11/26 16:22:02;;;;;;;7.10;3.78;;;7.50;99.90;;;;;;5016981;28;20029;-72
2022/11/26 16:24:33;;;;;;;7.45;4.07;;;7.40;99.90;;;;;;5016598;28;20490;-72
2022/11/26 16:27:06;;;;;;;7.53;5.10;;;7.30;99.90;;;;;;5016068;28;20026;-73
2022/11/26 16:29:34;;;;;;;8.25;4.28;;;7.20;99.90;;;;;;5015836;28;20478;-72
2022/11/26 16:32:02;;;;;;;9.52;5.72;;;7.20;99.90;;;;;;4997923;28;20030;-72
2022/11/26 16:34:28;;;;;;;8.43;5.38;;;7.20;99.90;;;;;;4997303;28;20045;-73
2022/11/26 16:37:02;;;;;;;7.03;5.25;;;7.10;99.90;;;;;;4997496;28;20458;-73
2022/11/26 16:39:31;;;;;;;8.23;5.82;;;7.10;99.90;;;;;;4998011;28;20117;-72
2022/11/26 16:41:57;;;;;;;7.97;6.15;;;7.00;99.90;;;;;;4999155;28;20026;-72
2022/11/26 16:44:22;;;;;;;10.77;7.05;;;7.00;99.90;;;;;;5016386;28;20042;-72
2022/11/26 16:46:50;;;;;;;8.18;6.45;;;6.90;99.90;;;;;;5016908;28;20544;-67
2022/11/26 16:49:16;;;;;;;9.93;7.28;;;6.80;99.90;;;;;;4999463;28;20121;-72
2022/11/26 16:51:42;;;;;;;10.55;6.38;;;6.80;99.90;;;;;;5015376;28;20061;-71
2022/11/26 16:54:08;;;;;;;12.10;7.15;;;6.80;99.90;;;;;;5015180;28;20041;-71
2022/11/26 16:56:37;;;;;;;14.05;7.82;;;6.80;99.90;;;;;;4999089;28;20052;-70
2022/11/26 16:59:18;;;;;;;13.88;9.45;;;6.70;99.90;;;;;;5000014;28;20033;-71
2022/11/26 17:01:44;;;;;;;13.70;8.77;;;6.70;99.90;;;;;;5004278;28;20470;-70
2022/11/26 17:04:12;;;;;;;14.45;8.60;;;6.70;99.90;;;;;;5019710;28;20038;-69
2022/11/26 17:06:38;;;;;;;12.52;9.00;;;6.60;99.90;;;;;;5000480;28;20026;-70
2022/11/26 17:09:04;;;;;;;12.07;8.68;;;6.60;99.90;;;;;;5000424;28;20030;-69
2022/11/26 17:11:30;;;;;;;13.45;9.77;;;6.60;99.90;;;;;;5017635;28;20026;-65
2022/11/26 17:13:56;;;;;;;16.08;10.00;;;6.60;99.90;;;;;;5017485;28;20492;-69